Hazelwood, Indiana
Current Conditions -  °F | °C
As of 3:35 PM on Monday 26 Jan 2015 (Local Time) from KGWB Reporting Station
Broken Clouds Broken Clouds  
Wind Chill: 27°   Ceiling: 8500
Heat Index: 27°   Visibility: 10mi
Dew Point:   Wind: 3mph
Humidity: 40%   Direction: 260°W
Pressure: 29.9"   Gusts: NA
Location:  41.2058°N, 85.1108°W
Report Text: KGWB 262035Z AUTO 26003KT 10SM BKN085 M03/M15 A2990 RMK AO2
Loading
Personal Weather Stations






























Interactive Weather Map New forecast layout! Learn more

10-Day Weather Forecast

Advertisements
Track Severe Weather on mobile